sensor_id;sensor_type;location;lat;lon;timestamp;pressure;altitude;pressure_sealevel;temperature;humidity
16120;BME280;12670;53.502;10.252;2024-02-23T00:00:02;97620.91;;;10.16;100.00
16120;BME280;12670;53.502;10.252;2024-02-23T00:03:06;97621.19;;;10.03;100.00
16120;BME280;12670;53.502;10.252;2024-02-23T00:06:10;97634.97;;;10.07;100.00
16120;BME280;12670;53.502;10.252;2024-02-23T00:09:14;97620.34;;;10.03;100.00
16120;BME280;12670;53.502;10.252;2024-02-23T00:12:17;97651.97;;;10.04;100.00
16120;BME280;12670;53.502;10.252;2024-02-23T00:15:20;97646.41;;;10.07;100.00
16120;BME280;12670;53.502;10.252;2024-02-23T00:18:23;97650.81;;;9.87;100.00
16120;BME280;12670;53.502;10.252;2024-02-23T00:21:25;97669.16;;;9.70;100.00
16120;BME280;12670;53.502;10.252;2024-02-23T00:24:29;97647.59;;;9.84;100.00
16120;BME280;12670;53.502;10.252;2024-02-23T00:27:32;97682.03;;;9.53;100.00
16120;BME280;12670;53.502;10.252;2024-02-23T00:30:35;97694.19;;;9.56;100.00
16120;BME280;12670;53.502;10.252;2024-02-23T00:33:38;97692.66;;;9.63;100.00
16120;BME280;12670;53.502;10.252;2024-02-23T00:36:43;97677.13;;;9.49;100.00
16120;BME280;12670;53.502;10.252;2024-02-23T00:39:48;97681.88;;;9.45;100.00
16120;BME280;12670;53.502;10.252;2024-02-23T00:42:50;97692.13;;;9.39;100.00
16120;BME280;12670;53.502;10.252;2024-02-23T00:45:53;97685.91;;;9.49;100.00
16120;BME280;12670;53.502;10.252;2024-02-23T00:48:56;97678.69;;;9.51;100.00
16120;BME280;12670;53.502;10.252;2024-02-23T00:51:59;97696.91;;;9.45;100.00
16120;BME280;12670;53.502;10.252;2024-02-23T00:55:03;97718.59;;;9.39;100.00
16120;BME280;12670;53.502;10.252;2024-02-23T00:58:06;97695.16;;;9.34;100.00
16120;BME280;12670;53.502;10.252;2024-02-23T01:01:09;97703.50;;;9.29;100.00
16120;BME280;12670;53.502;10.252;2024-02-23T01:04:11;97714.06;;;9.29;100.00
16120;BME280;12670;53.502;10.252;2024-02-23T01:07:14;97738.44;;;9.12;100.00
16120;BME280;12670;53.502;10.252;2024-02-23T01:10:18;97777.91;;;9.04;100.00
16120;BME280;12670;53.502;10.252;2024-02-23T01:13:21;97799.84;;;8.84;100.00
16120;BME280;12670;53.502;10.252;2024-02-23T01:16:24;97833.34;;;8.51;100.00
16120;BME280;12670;53.502;10.252;2024-02-23T01:19:26;97860.31;;;7.52;100.00
16120;BME280;12670;53.502;10.252;2024-02-23T01:22:29;97844.06;;;6.99;100.00
16120;BME280;12670;53.502;10.252;2024-02-23T01:25:33;97867.31;;;7.05;100.00
16120;BME280;12670;53.502;10.252;2024-02-23T01:28:36;97860.81;;;6.98;100.00
16120;BME280;12670;53.502;10.252;2024-02-23T01:31:39;97866.97;;;6.86;100.00
16120;BME280;12670;53.502;10.252;2024-02-23T01:34:41;97876.50;;;6.76;100.00
16120;BME280;12670;53.502;10.252;2024-02-23T01:37:44;97869.38;;;6.89;100.00
16120;BME280;12670;53.502;10.252;2024-02-23T01:40:48;97884.25;;;6.90;100.00
16120;BME280;12670;53.502;10.252;2024-02-23T01:43:51;97904.81;;;6.85;100.00
16120;BME280;12670;53.502;10.252;2024-02-23T01:46:54;97910.63;;;6.77;100.00
16120;BME280;12670;53.502;10.252;2024-02-23T01:49:57;97913.53;;;6.85;100.00
16120;BME280;12670;53.502;10.252;2024-02-23T01:53:02;97925.31;;;7.05;100.00
16120;BME280;12670;53.502;10.252;2024-02-23T01:56:06;97950.00;;;7.04;100.00
16120;BME280;12670;53.502;10.252;2024-02-23T01:59:10;97959.69;;;6.91;100.00
16120;BME280;12670;53.502;10.252;2024-02-23T02:02:13;97963.25;;;7.03;100.00
16120;BME280;12670;53.502;10.252;2024-02-23T02:05:16;97977.44;;;6.89;100.00
16120;BME280;12670;53.502;10.252;2024-02-23T02:08:22;98001.22;;;7.00;100.00
16120;BME280;12670;53.502;10.252;2024-02-23T02:11:27;98017.41;;;7.19;100.00
16120;BME280;12670;53.502;10.252;2024-02-23T02:14:30;98023.03;;;7.02;100.00
16120;BME280;12670;53.502;10.252;2024-02-23T02:17:34;98045.69;;;7.17;100.00
16120;BME280;12670;53.502;10.252;2024-02-23T02:20:46;98040.06;;;7.35;100.00
16120;BME280;12670;53.502;10.252;2024-02-23T02:23:52;98042.19;;;7.30;100.00
16120;BME280;12670;53.502;10.252;2024-02-23T02:26:56;98048.25;;;7.06;100.00
16120;BME280;12670;53.502;10.252;2024-02-23T02:29:59;98061.19;;;7.09;100.00
16120;BME280;12670;53.502;10.252;2024-02-23T02:33:02;98062.69;;;7.01;100.00
16120;BME280;12670;53.502;10.252;2024-02-23T02:36:05;98077.78;;;6.99;100.00
16120;BME280;12670;53.502;10.252;2024-02-23T02:39:07;98098.09;;;7.09;100.00
16120;BME280;12670;53.502;10.252;2024-02-23T02:42:13;98113.91;;;7.09;100.00
16120;BME280;12670;53.502;10.252;2024-02-23T02:45:16;98129.13;;;6.93;100.00
16120;BME280;12670;53.502;10.252;2024-02-23T02:48:21;98125.63;;;7.05;100.00
16120;BME280;12670;53.502;10.252;2024-02-23T02:51:23;98147.44;;;6.82;100.00
16120;BME280;12670;53.502;10.252;2024-02-23T02:54:26;98155.53;;;6.79;100.00
16120;BME280;12670;53.502;10.252;2024-02-23T02:57:30;98163.38;;;6.80;100.00
16120;BME280;12670;53.502;10.252;2024-02-23T03:00:33;98169.66;;;6.65;100.00
16120;BME280;12670;53.502;10.252;2024-02-23T03:03:36;98169.19;;;6.46;100.00
16120;BME280;12670;53.502;10.252;2024-02-23T03:06:38;98190.59;;;6.54;100.00
16120;BME280;12670;53.502;10.252;2024-02-23T03:09:42;98205.66;;;6.52;100.00
16120;BME280;12670;53.502;10.252;2024-02-23T03:12:46;98209.03;;;6.54;100.00
16120;BME280;12670;53.502;10.252;2024-02-23T03:15:48;98231.00;;;6.40;100.00
16120;BME280;12670;53.502;10.252;2024-02-23T03:18:51;98223.09;;;6.40;100.00
16120;BME280;12670;53.502;10.252;2024-02-23T03:21:55;98229.34;;;6.25;100.00
16120;BME280;12670;53.502;10.252;2024-02-23T03:24:58;98231.81;;;6.28;100.00
16120;BME280;12670;53.502;10.252;2024-02-23T03:28:02;98229.34;;;6.25;100.00
16120;BME280;12670;53.502;10.252;2024-02-23T03:31:05;98241.97;;;6.20;100.00
16120;BME280;12670;53.502;10.252;2024-02-23T03:34:08;98239.31;;;6.20;100.00
16120;BME280;12670;53.502;10.252;2024-02-23T03:37:10;98259.44;;;6.21;100.00
16120;BME280;12670;53.502;10.252;2024-02-23T03:40:13;98263.88;;;6.20;100.00
16120;BME280;12670;53.502;10.252;2024-02-23T03:43:18;98274.03;;;5.98;100.00
16120;BME280;12670;53.502;10.252;2024-02-23T03:46:22;98276.59;;;5.99;100.00
16120;BME280;12670;53.502;10.252;2024-02-23T03:49:24;98289.56;;;6.02;100.00
16120;BME280;12670;53.502;10.252;2024-02-23T03:52:27;98291.03;;;6.21;100.00
16120;BME280;12670;53.502;10.252;2024-02-23T03:55:30;98299.34;;;6.00;100.00
16120;BME280;12670;53.502;10.252;2024-02-23T03:58:34;98299.13;;;6.03;100.00
16120;BME280;12670;53.502;10.252;2024-02-23T04:01:37;98305.34;;;6.17;100.00
16120;BME280;12670;53.502;10.252;2024-02-23T04:04:40;98315.75;;;6.04;100.00
16120;BME280;12670;53.502;10.252;2024-02-23T04:07:43;98322.69;;;5.91;100.00
16120;BME280;12670;53.502;10.252;2024-02-23T04:10:46;98339.69;;;5.85;100.00
16120;BME280;12670;53.502;10.252;2024-02-23T04:13:50;98339.06;;;5.81;100.00
16120;BME280;12670;53.502;10.252;2024-02-23T04:16:53;98355.69;;;5.82;100.00
16120;BME280;12670;53.502;10.252;2024-02-23T04:19:56;98355.75;;;5.52;100.00
16120;BME280;12670;53.502;10.252;2024-02-23T04:22:59;98369.59;;;5.70;100.00
16120;BME280;12670;53.502;10.252;2024-02-23T04:26:01;98379.31;;;5.68;100.00
16120;BME280;12670;53.502;10.252;2024-02-23T04:29:06;98386.94;;;5.58;100.00
16120;BME280;12670;53.502;10.252;2024-02-23T04:32:09;98387.34;;;5.80;100.00
16120;BME280;12670;53.502;10.252;2024-02-23T04:35:11;98386.47;;;5.51;100.00
16120;BME280;12670;53.502;10.252;2024-02-23T04:38:14;98388.72;;;5.57;100.00
16120;BME280;12670;53.502;10.252;2024-02-23T04:41:19;98392.22;;;5.72;100.00
16120;BME280;12670;53.502;10.252;2024-02-23T04:44:24;98408.75;;;5.74;100.00
16120;BME280;12670;53.502;10.252;2024-02-23T04:47:26;98405.72;;;5.96;100.00
16120;BME280;12670;53.502;10.252;2024-02-23T04:50:29;98412.69;;;6.11;100.00
16120;BME280;12670;53.502;10.252;2024-02-23T04:53:36;98413.94;;;5.90;100.00
16120;BME280;12670;53.502;10.252;2024-02-23T04:56:38;98431.88;;;6.13;100.00
16120;BME280;12670;53.502;10.252;2024-02-23T04:59:43;98431.09;;;5.97;100.00
16120;BME280;12670;53.502;10.252;2024-02-23T05:02:46;98420.50;;;5.99;100.00
16120;BME280;12670;53.502;10.252;2024-02-23T05:05:48;98433.31;;;5.89;100.00
16120;BME280;12670;53.502;10.252;2024-02-23T05:08:55;98434.03;;;5.77;100.00
16120;BME280;12670;53.502;10.252;2024-02-23T05:11:58;98446.09;;;5.81;100.00
16120;BME280;12670;53.502;10.252;2024-02-23T05:15:03;98464.72;;;5.92;100.00
16120;BME280;12670;53.502;10.252;2024-02-23T05:18:06;98462.88;;;5.94;100.00
16120;BME280;12670;53.502;10.252;2024-02-23T05:21:09;98452.00;;;5.84;100.00
16120;BME280;12670;53.502;10.252;2024-02-23T05:24:12;98473.34;;;6.10;100.00
16120;BME280;12670;53.502;10.252;2024-02-23T05:27:14;98464.78;;;6.06;100.00
16120;BME280;12670;53.502;10.252;2024-02-23T05:30:18;98474.34;;;5.93;100.00
16120;BME280;12670;53.502;10.252;2024-02-23T05:33:21;98480.41;;;5.64;100.00
16120;BME280;12670;53.502;10.252;2024-02-23T05:36:24;98490.63;;;5.84;100.00
16120;BME280;12670;53.502;10.252;2024-02-23T05:39:27;98484.47;;;5.69;100.00
16120;BME280;12670;53.502;10.252;2024-02-23T05:42:30;98487.63;;;5.90;100.00
16120;BME280;12670;53.502;10.252;2024-02-23T05:45:38;98498.88;;;5.78;100.00
16120;BME280;12670;53.502;10.252;2024-02-23T05:48:41;98500.19;;;6.01;100.00
16120;BME280;12670;53.502;10.252;2024-02-23T05:51:45;98515.16;;;5.84;100.00
16120;BME280;12670;53.502;10.252;2024-02-23T05:54:47;98517.75;;;5.70;100.00
16120;BME280;12670;53.502;10.252;2024-02-23T05:57:53;98517.47;;;5.75;100.00
16120;BME280;12670;53.502;10.252;2024-02-23T06:00:57;98533.81;;;5.80;100.00
16120;BME280;12670;53.502;10.252;2024-02-23T06:03:59;98549.59;;;5.80;100.00
16120;BME280;12670;53.502;10.252;2024-02-23T06:07:03;98551.31;;;5.81;100.00
16120;BME280;12670;53.502;10.252;2024-02-23T06:10:07;98568.47;;;5.88;100.00
16120;BME280;12670;53.502;10.252;2024-02-23T06:13:10;98565.38;;;5.80;100.00
16120;BME280;12670;53.502;10.252;2024-02-23T06:16:13;98583.94;;;5.94;100.00
16120;BME280;12670;53.502;10.252;2024-02-23T06:19:17;98578.97;;;5.88;100.00
16120;BME280;12670;53.502;10.252;2024-02-23T06:22:20;98591.19;;;5.89;100.00
16120;BME280;12670;53.502;10.252;2024-02-23T06:25:23;98593.25;;;6.00;100.00
16120;BME280;12670;53.502;10.252;2024-02-23T06:28:26;98592.41;;;5.68;100.00
16120;BME280;12670;53.502;10.252;2024-02-23T06:31:30;98601.22;;;5.67;100.00
16120;BME280;12670;53.502;10.252;2024-02-23T06:34:35;98618.53;;;5.71;100.00
16120;BME280;12670;53.502;10.252;2024-02-23T06:37:38;98616.66;;;5.73;100.00
16120;BME280;12670;53.502;10.252;2024-02-23T06:40:40;98618.69;;;5.68;100.00
16120;BME280;12670;53.502;10.252;2024-02-23T06:43:52;98619.91;;;5.46;100.00
16120;BME280;12670;53.502;10.252;2024-02-23T06:46:56;98626.19;;;5.59;100.00
16120;BME280;12670;53.502;10.252;2024-02-23T06:49:59;98623.72;;;5.72;100.00
16120;BME280;12670;53.502;10.252;2024-02-23T06:53:02;98642.22;;;5.71;100.00
16120;BME280;12670;53.502;10.252;2024-02-23T06:56:05;98641.19;;;5.89;100.00
16120;BME280;12670;53.502;10.252;2024-02-23T06:59:08;98651.31;;;5.81;100.00
16120;BME280;12670;53.502;10.252;2024-02-23T07:02:12;98645.69;;;5.87;100.00
16120;BME280;12670;53.502;10.252;2024-02-23T07:05:15;98647.16;;;5.77;100.00
16120;BME280;12670;53.502;10.252;2024-02-23T07:08:18;98651.56;;;5.92;100.00
16120;BME280;12670;53.502;10.252;2024-02-23T07:11:21;98666.56;;;5.90;100.00
16120;BME280;12670;53.502;10.252;2024-02-23T07:14:24;98663.03;;;5.91;100.00
16120;BME280;12670;53.502;10.252;2024-02-23T07:17:28;98669.53;;;5.84;100.00
16120;BME280;12670;53.502;10.252;2024-02-23T07:20:31;98671.22;;;5.85;100.00
16120;BME280;12670;53.502;10.252;2024-02-23T07:23:34;98685.06;;;5.73;100.00
16120;BME280;12670;53.502;10.252;2024-02-23T07:26:37;98689.81;;;5.66;100.00
16120;BME280;12670;53.502;10.252;2024-02-23T07:29:39;98693.97;;;5.86;100.00
16120;BME280;12670;53.502;10.252;2024-02-23T07:32:44;98695.16;;;5.80;100.00
16120;BME280;12670;53.502;10.252;2024-02-23T07:35:53;98697.78;;;5.80;100.00
16120;BME280;12670;53.502;10.252;2024-02-23T07:38:56;98698.03;;;5.93;100.00
16120;BME280;12670;53.502;10.252;2024-02-23T07:41:58;98703.28;;;5.93;100.00
16120;BME280;12670;53.502;10.252;2024-02-23T07:45:02;98704.78;;;6.13;100.00
16120;BME280;12670;53.502;10.252;2024-02-23T07:48:07;98717.47;;;6.06;100.00
16120;BME280;12670;53.502;10.252;2024-02-23T07:51:10;98724.66;;;6.03;100.00
16120;BME280;12670;53.502;10.252;2024-02-23T07:54:13;98735.03;;;6.22;100.00
16120;BME280;12670;53.502;10.252;2024-02-23T07:57:15;98729.66;;;6.39;100.00
16120;BME280;12670;53.502;10.252;2024-02-23T08:00:19;98738.34;;;6.41;100.00
16120;BME280;12670;53.502;10.252;2024-02-23T08:03:26;98726.41;;;6.50;100.00
16120;BME280;12670;53.502;10.252;2024-02-23T08:06:28;98751.75;;;6.21;100.00
16120;BME280;12670;53.502;10.252;2024-02-23T08:09:31;98744.53;;;6.40;100.00
16120;BME280;12670;53.502;10.252;2024-02-23T08:12:34;98749.69;;;6.57;100.00
16120;BME280;12670;53.502;10.252;2024-02-23T08:15:43;98757.25;;;6.48;100.00
16120;BME280;12670;53.502;10.252;2024-02-23T08:18:47;98760.47;;;6.68;100.00
16120;BME280;12670;53.502;10.252;2024-02-23T08:21:50;98764.56;;;6.58;100.00
16120;BME280;12670;53.502;10.252;2024-02-23T08:24:52;98755.97;;;6.71;100.00
16120;BME280;12670;53.502;10.252;2024-02-23T08:27:55;98765.69;;;6.84;100.00
16120;BME280;12670;53.502;10.252;2024-02-23T08:30:58;98768.59;;;6.80;100.00
16120;BME280;12670;53.502;10.252;2024-02-23T08:34:02;98764.13;;;6.96;100.00
16120;BME280;12670;53.502;10.252;2024-02-23T08:37:05;98773.47;;;7.02;100.00
16120;BME280;12670;53.502;10.252;2024-02-23T08:40:09;98776.81;;;7.19;100.00
16120;BME280;12670;53.502;10.252;2024-02-23T08:43:11;98777.06;;;7.45;100.00
16120;BME280;12670;53.502;10.252;2024-02-23T08:46:15;98797.97;;;7.48;100.00
16120;BME280;12670;53.502;10.252;2024-02-23T08:49:19;98794.16;;;7.24;100.00
16120;BME280;12670;53.502;10.252;2024-02-23T08:52:21;98792.75;;;7.32;100.00
16120;BME280;12670;53.502;10.252;2024-02-23T08:55:24;98805.19;;;7.30;100.00
16120;BME280;12670;53.502;10.252;2024-02-23T08:58:27;98810.56;;;7.43;100.00
16120;BME280;12670;53.502;10.252;2024-02-23T09:01:29;98818.84;;;7.22;100.00
16120;BME280;12670;53.502;10.252;2024-02-23T09:04:33;98817.38;;;7.47;100.00
16120;BME280;12670;53.502;10.252;2024-02-23T09:07:36;98816.09;;;7.24;100.00
16120;BME280;12670;53.502;10.252;2024-02-23T09:10:40;98821.00;;;7.30;100.00
16120;BME280;12670;53.502;10.252;2024-02-23T09:13:43;98832.47;;;7.59;100.00
16120;BME280;12670;53.502;10.252;2024-02-23T09:16:47;98819.63;;;7.39;100.00
16120;BME280;12670;53.502;10.252;2024-02-23T09:19:53;98848.66;;;7.53;100.00
16120;BME280;12670;53.502;10.252;2024-02-23T09:22:56;98848.66;;;7.53;100.00
16120;BME280;12670;53.502;10.252;2024-02-23T09:25:59;98844.25;;;7.68;100.00
16120;BME280;12670;53.502;10.252;2024-02-23T09:29:02;98862.97;;;7.49;100.00
16120;BME280;12670;53.502;10.252;2024-02-23T09:32:05;98859.59;;;7.47;100.00
16120;BME280;12670;53.502;10.252;2024-02-23T09:35:09;98864.59;;;7.52;100.00
16120;BME280;12670;53.502;10.252;2024-02-23T09:38:12;98877.47;;;7.42;100.00
16120;BME280;12670;53.502;10.252;2024-02-23T09:41:19;98889.91;;;7.40;100.00
16120;BME280;12670;53.502;10.252;2024-02-23T09:44:22;98885.13;;;7.46;100.00
16120;BME280;12670;53.502;10.252;2024-02-23T09:47:26;98888.25;;;7.23;100.00
16120;BME280;12670;53.502;10.252;2024-02-23T09:50:32;98895.53;;;7.34;100.00
16120;BME280;12670;53.502;10.252;2024-02-23T09:53:36;98885.09;;;7.62;100.00
16120;BME280;12670;53.502;10.252;2024-02-23T09:56:39;98902.34;;;7.82;100.00
16120;BME280;12670;53.502;10.252;2024-02-23T09:59:43;98902.97;;;7.57;100.00
16120;BME280;12670;53.502;10.252;2024-02-23T10:02:45;98909.59;;;7.64;100.00
16120;BME280;12670;53.502;10.252;2024-02-23T10:05:49;98923.13;;;7.58;100.00
16120;BME280;12670;53.502;10.252;2024-02-23T10:08:52;98910.66;;;7.76;100.00
16120;BME280;12670;53.502;10.252;2024-02-23T10:11:55;98927.13;;;7.80;100.00
16120;BME280;12670;53.502;10.252;2024-02-23T10:14:59;98920.94;;;7.81;100.00
16120;BME280;12670;53.502;10.252;2024-02-23T10:18:06;98944.22;;;7.88;100.00
16120;BME280;12670;53.502;10.252;2024-02-23T10:21:10;98950.00;;;7.95;99.90
16120;BME280;12670;53.502;10.252;2024-02-23T10:24:15;98949.09;;;8.10;97.64
16120;BME280;12670;53.502;10.252;2024-02-23T10:27:18;98950.69;;;7.98;95.30
16120;BME280;12670;53.502;10.252;2024-02-23T10:30:21;98949.16;;;8.39;91.41
16120;BME280;12670;53.502;10.252;2024-02-23T10:33:23;98955.13;;;8.26;86.78
16120;BME280;12670;53.502;10.252;2024-02-23T10:36:29;98958.91;;;8.22;89.06
16120;BME280;12670;53.502;10.252;2024-02-23T10:39:35;98971.22;;;8.66;88.32
16120;BME280;12670;53.502;10.252;2024-02-23T10:42:39;98968.94;;;8.60;81.71
16120;BME280;12670;53.502;10.252;2024-02-23T10:45:42;98962.13;;;8.85;80.72
16120;BME280;12670;53.502;10.252;2024-02-23T10:48:46;98972.53;;;8.73;80.97
16120;BME280;12670;53.502;10.252;2024-02-23T10:51:53;98972.00;;;9.51;77.51
16120;BME280;12670;53.502;10.252;2024-02-23T10:54:57;98961.38;;;9.38;73.16
16120;BME280;12670;53.502;10.252;2024-02-23T10:58:02;98965.75;;;10.04;76.28
16120;BME280;12670;53.502;10.252;2024-02-23T11:01:07;98976.41;;;9.90;76.54
16120;BME280;12670;53.502;10.252;2024-02-23T11:04:11;98972.22;;;9.60;75.78
16120;BME280;12670;53.502;10.252;2024-02-23T11:07:15;98974.72;;;9.22;75.78
16120;BME280;12670;53.502;10.252;2024-02-23T11:10:18;98976.66;;;9.06;75.50
16120;BME280;12670;53.502;10.252;2024-02-23T11:13:30;98973.00;;;8.66;78.91
16120;BME280;12670;53.502;10.252;2024-02-23T11:16:38;99003.59;;;8.84;83.04
16120;BME280;12670;53.502;10.252;2024-02-23T11:19:41;98981.97;;;8.77;84.73
16120;BME280;12670;53.502;10.252;2024-02-23T11:22:51;98966.78;;;8.81;82.93
16120;BME280;12670;53.502;10.252;2024-02-23T11:26:09;98967.97;;;9.04;77.31
16120;BME280;12670;53.502;10.252;2024-02-23T11:29:12;98972.72;;;8.85;78.58
16120;BME280;12670;53.502;10.252;2024-02-23T11:32:17;98972.72;;;8.85;79.33
16120;BME280;12670;53.502;10.252;2024-02-23T11:35:20;98969.84;;;9.02;83.27
16120;BME280;12670;53.502;10.252;2024-02-23T11:38:29;98977.81;;;9.29;85.37
16120;BME280;12670;53.502;10.252;2024-02-23T11:41:33;98969.59;;;8.92;79.02
16120;BME280;12670;53.502;10.252;2024-02-23T11:44:36;98979.72;;;8.57;80.03
16120;BME280;12670;53.502;10.252;2024-02-23T11:47:39;98977.28;;;8.68;79.08
16120;BME280;12670;53.502;10.252;2024-02-23T11:50:42;98963.50;;;8.63;81.58
16120;BME280;12670;53.502;10.252;2024-02-23T11:53:46;98964.28;;;8.35;80.60
16120;BME280;12670;53.502;10.252;2024-02-23T11:56:49;98967.22;;;8.31;82.20
16120;BME280;12670;53.502;10.252;2024-02-23T11:59:54;98960.44;;;8.55;83.51
16120;BME280;12670;53.502;10.252;2024-02-23T12:02:56;98961.19;;;8.71;84.12
16120;BME280;12670;53.502;10.252;2024-02-23T12:06:00;98960.66;;;8.80;82.86
16120;BME280;12670;53.502;10.252;2024-02-23T12:09:04;98961.78;;;8.76;83.41
16120;BME280;12670;53.502;10.252;2024-02-23T12:12:07;98962.19;;;8.56;81.47
16120;BME280;12670;53.502;10.252;2024-02-23T12:15:11;98964.97;;;8.81;77.49
16120;BME280;12670;53.502;10.252;2024-02-23T12:18:14;98967.81;;;8.78;79.74
16120;BME280;12670;53.502;10.252;2024-02-23T12:21:17;98989.69;;;8.38;75.88
16120;BME280;12670;53.502;10.252;2024-02-23T12:24:21;98971.38;;;8.35;77.64
16120;BME280;12670;53.502;10.252;2024-02-23T12:27:27;98982.53;;;8.54;81.38
16120;BME280;12670;53.502;10.252;2024-02-23T12:30:30;98987.84;;;8.40;76.69
16120;BME280;12670;53.502;10.252;2024-02-23T12:33:35;98988.22;;;8.62;78.97
16120;BME280;12670;53.502;10.252;2024-02-23T12:36:39;98978.22;;;8.53;75.39
16120;BME280;12670;53.502;10.252;2024-02-23T12:39:43;98990.78;;;8.64;76.46
16120;BME280;12670;53.502;10.252;2024-02-23T12:42:46;98982.66;;;9.22;74.51
16120;BME280;12670;53.502;10.252;2024-02-23T12:45:50;98974.72;;;9.76;71.89
16120;BME280;12670;53.502;10.252;2024-02-23T12:48:53;98984.22;;;9.39;67.36
16120;BME280;12670;53.502;10.252;2024-02-23T12:51:56;98978.38;;;9.34;67.57
16120;BME280;12670;53.502;10.252;2024-02-23T12:55:00;98991.44;;;9.23;68.40
16120;BME280;12670;53.502;10.252;2024-02-23T12:58:03;98992.97;;;9.13;66.88
16120;BME280;12670;53.502;10.252;2024-02-23T13:01:06;98990.88;;;9.18;69.36
16120;BME280;12670;53.502;10.252;2024-02-23T13:04:09;98991.28;;;9.12;68.37
16120;BME280;12670;53.502;10.252;2024-02-23T13:07:12;98999.72;;;9.04;68.61
16120;BME280;12670;53.502;10.252;2024-02-23T13:10:16;99006.81;;;8.89;69.34
16120;BME280;12670;53.502;10.252;2024-02-23T13:13:20;99004.75;;;8.80;68.93
16120;BME280;12670;53.502;10.252;2024-02-23T13:16:23;98999.34;;;8.81;70.29
16120;BME280;12670;53.502;10.252;2024-02-23T13:19:25;99002.44;;;9.02;71.35
16120;BME280;12670;53.502;10.252;2024-02-23T13:22:29;99011.06;;;8.92;70.66
16120;BME280;12670;53.502;10.252;2024-02-23T13:25:32;99006.34;;;8.82;69.38
16120;BME280;12670;53.502;10.252;2024-02-23T13:28:35;99004.94;;;8.91;69.69
16120;BME280;12670;53.502;10.252;2024-02-23T13:31:38;99018.81;;;8.80;65.51
16120;BME280;12670;53.502;10.252;2024-02-23T13:34:41;99006.53;;;8.79;65.46
16120;BME280;12670;53.502;10.252;2024-02-23T13:37:43;99017.13;;;8.79;67.39
16120;BME280;12670;53.502;10.252;2024-02-23T13:40:47;99023.78;;;8.85;68.82
16120;BME280;12670;53.502;10.252;2024-02-23T13:43:50;99024.94;;;8.95;66.96
16120;BME280;12670;53.502;10.252;2024-02-23T13:46:53;99026.16;;;8.90;66.37
16120;BME280;12670;53.502;10.252;2024-02-23T13:49:56;99024.56;;;8.87;67.04
16120;BME280;12670;53.502;10.252;2024-02-23T13:52:59;99022.97;;;8.70;70.16
16120;BME280;12670;53.502;10.252;2024-02-23T13:56:03;99029.56;;;8.92;70.08
16120;BME280;12670;53.502;10.252;2024-02-23T13:59:06;99029.19;;;8.84;67.84
16120;BME280;12670;53.502;10.252;2024-02-23T14:02:09;99029.38;;;8.80;65.60
16120;BME280;12670;53.502;10.252;2024-02-23T14:05:12;99025.97;;;8.78;65.31
16120;BME280;12670;53.502;10.252;2024-02-23T14:08:16;99034.47;;;8.69;65.90
16120;BME280;12670;53.502;10.252;2024-02-23T14:11:20;99027.31;;;8.57;65.83
16120;BME280;12670;53.502;10.252;2024-02-23T14:14:23;99032.47;;;8.73;66.50
16120;BME280;12670;53.502;10.252;2024-02-23T14:17:26;99033.44;;;8.72;68.86
16120;BME280;12670;53.502;10.252;2024-02-23T14:20:29;99033.16;;;8.76;69.91
16120;BME280;12670;53.502;10.252;2024-02-23T14:23:32;99026.16;;;9.04;69.09
16120;BME280;12670;53.502;10.252;2024-02-23T14:26:36;99036.25;;;9.12;67.69
16120;BME280;12670;53.502;10.252;2024-02-23T14:29:39;99031.06;;;9.10;69.14
16120;BME280;12670;53.502;10.252;2024-02-23T14:32:42;99039.22;;;8.93;68.33
16120;BME280;12670;53.502;10.252;2024-02-23T14:35:45;99038.22;;;9.08;69.28
16120;BME280;12670;53.502;10.252;2024-02-23T14:38:47;99039.31;;;9.47;73.04
16120;BME280;12670;53.502;10.252;2024-02-23T14:41:52;99038.00;;;9.25;68.57
16120;BME280;12670;53.502;10.252;2024-02-23T14:44:54;99036.09;;;9.42;71.42
16120;BME280;12670;53.502;10.252;2024-02-23T14:47:57;99041.91;;;9.61;68.80
16120;BME280;12670;53.502;10.252;2024-02-23T14:51:01;99037.47;;;9.61;66.02
16120;BME280;12670;53.502;10.252;2024-02-23T14:54:05;99032.09;;;9.49;66.10
16120;BME280;12670;53.502;10.252;2024-02-23T14:57:09;99035.31;;;9.54;66.44
16120;BME280;12670;53.502;10.252;2024-02-23T15:00:13;99037.78;;;9.43;64.76
16120;BME280;12670;53.502;10.252;2024-02-23T15:03:16;99039.69;;;9.41;65.28
16120;BME280;12670;53.502;10.252;2024-02-23T15:06:18;99035.34;;;9.67;67.83
16120;BME280;12670;53.502;10.252;2024-02-23T15:09:24;99040.47;;;9.70;68.61
16120;BME280;12670;53.502;10.252;2024-02-23T15:12:28;99044.94;;;9.55;65.53
16120;BME280;12670;53.502;10.252;2024-02-23T15:15:30;99053.28;;;9.49;66.81
16120;BME280;12670;53.502;10.252;2024-02-23T15:18:33;99045.78;;;9.28;67.33
16120;BME280;12670;53.502;10.252;2024-02-23T15:21:36;99047.41;;;9.58;67.54
16120;BME280;12670;53.502;10.252;2024-02-23T15:24:42;99051.72;;;9.73;69.53
16120;BME280;12670;53.502;10.252;2024-02-23T15:27:48;99051.34;;;9.65;68.00
16120;BME280;12670;53.502;10.252;2024-02-23T15:30:53;99053.94;;;9.52;69.49
16120;BME280;12670;53.502;10.252;2024-02-23T15:33:56;99051.69;;;9.46;68.53
16120;BME280;12670;53.502;10.252;2024-02-23T15:37:00;99052.44;;;9.48;70.18
16120;BME280;12670;53.502;10.252;2024-02-23T15:40:06;99065.94;;;9.58;69.99
16120;BME280;12670;53.502;10.252;2024-02-23T15:43:11;99064.44;;;9.81;73.14
16120;BME280;12670;53.502;10.252;2024-02-23T15:46:14;99063.38;;;9.83;73.41
16120;BME280;12670;53.502;10.252;2024-02-23T15:49:17;99063.91;;;9.76;70.74
16120;BME280;12670;53.502;10.252;2024-02-23T15:52:40;99063.53;;;9.95;74.41
16120;BME280;12670;53.502;10.252;2024-02-23T15:55:43;99060.84;;;10.09;77.13
16120;BME280;12670;53.502;10.252;2024-02-23T15:58:48;99058.47;;;9.92;74.23
16120;BME280;12670;53.502;10.252;2024-02-23T16:01:50;99061.94;;;9.92;75.31